M I D A S
Marine Information and Data Acquisition System
Tripno 1593 of the Zeeleeuw from 2008-10-22 06:58:39 to 2008-10-22 11:53:53
Back to CruiseResearch ActivitiesStationsMapUnderway DataData graphs

EquipmentUnitsComments
TimeDGPSUTC
LatitudeDGPSDM.mWGS84
LongitudeDGPSDM.mWGS84
SpeedMeteo Stationm/sRelative wind speed
DirectionMeteo StationdegRelative wind direction
TemperatureMeteo Stationdeg CelciusAir temperature
PressureMeteo StationPaAtmospheric pressure
HumidityMeteo Station%Relative humidity
Missing or incorrect values are displayed as -999
Metereological data collected by the RV Zeeleeuw from 2008-10-22 06:54:10 to 2008-10-22 11:56:52
Time Latitude Longitude Speed Direction Temperature Pressure Humidity
2008-10-22 06:55 51°13.642 2°55.975 -999 -999 -999 -999 -999
2008-10-22 06:56 51°13.674 2°55.863 -999 -999 -999 -999 -999
2008-10-22 06:57 51°13.694 2°55.773 -999 -999 -999 -999 -999
2008-10-22 06:58 51°13.695 2°55.726 -999 -999 -999 -999 -999
2008-10-22 06:59 51°13.72 2°55.734 -999 -999 -999 -999 -999
2008-10-22 07:00 51°13.809 2°55.657 -999 -999 -999 -999 -999
2008-10-22 07:01 51°13.931 2°55.559 -999 -999 -999 -999 -999
2008-10-22 07:02 51°14.057 2°55.461 -999 -999 -999 -999 -999
2008-10-22 07:03 51°14.182 2°55.353 -999 -999 -999 -999 -999
2008-10-22 07:04 51°14.298 2°55.183 -999 -999 -999 -999 -999
2008-10-22 07:05 51°14.392 2°54.957 -999 -999 -999 -999 -999
2008-10-22 07:06 51°14.494 2°54.7 -999 -999 -999 -999 -999
2008-10-22 07:07 51°14.589 2°54.427 -999 -999 -999 -999 -999
2008-10-22 07:08 51°14.656 2°54.138 -999 -999 -999 -999 -999
2008-10-22 07:09 51°14.703 2°53.842 -999 -999 -999 -999 -999
2008-10-22 07:10 51°14.747 2°53.542 -999 -999 -999 -999 -999
2008-10-22 07:11 51°14.791 2°53.241 -999 -999 -999 -999 -999
2008-10-22 07:12 51°14.835 2°52.94 -999 -999 -999 -999 -999
2008-10-22 07:13 51°14.87 2°52.641 -999 -999 -999 -999 -999
2008-10-22 07:14 51°14.906 2°52.343 -999 -999 -999 -999 -999
2008-10-22 07:15 51°14.944 2°52.046 -999 -999 -999 -999 -999
2008-10-22 07:16 51°14.985 2°51.75 -999 -999 -999 -999 -999
2008-10-22 07:17 51°15.034 2°51.456 -999 -999 -999 -999 -999
2008-10-22 07:18 51°15.084 2°51.162 -999 -999 -999 -999 -999
2008-10-22 07:19 51°15.132 2°50.867 -999 -999 -999 -999 -999
2008-10-22 07:20 51°15.18 2°50.572 -999 -999 -999 -999 -999
2008-10-22 07:21 51°15.226 2°50.276 -999 -999 -999 -999 -999
2008-10-22 07:22 51°15.272 2°49.978 -999 -999 -999 -999 -999
2008-10-22 07:23 51°15.329 2°49.684 -999 -999 -999 -999 -999
2008-10-22 07:24 51°15.389 2°49.391 -999 -999 -999 -999 -999
2008-10-22 07:25 51°15.448 2°49.098 -999 -999 -999 -999 -999
2008-10-22 07:26 51°15.512 2°48.808 -999 -999 -999 -999 -999
2008-10-22 07:27 51°15.573 2°48.516 -999 -999 -999 -999 -999
2008-10-22 07:28 51°15.635 2°48.222 -999 -999 -999 -999 -999
2008-10-22 07:29 51°15.695 2°47.928 -999 -999 -999 -999 -999
2008-10-22 07:30 51°15.756 2°47.634 -999 -999 -999 -999 -999
2008-10-22 07:31 51°15.819 2°47.343 -999 -999 -999 -999 -999
2008-10-22 07:32 51°15.881 2°47.052 -999 -999 -999 -999 -999
2008-10-22 07:33 51°15.938 2°46.76 -999 -999 -999 -999 -999
2008-10-22 07:34 51°15.996 2°46.47 -999 -999 -999 -999 -999
2008-10-22 07:35 51°16.061 2°46.182 -999 -999 -999 -999 -999
2008-10-22 07:36 51°16.153 2°45.909 -999 -999 -999 -999 -999
2008-10-22 07:37 51°16.257 2°45.64 -999 -999 -999 -999 -999
2008-10-22 07:38 51°16.359 2°45.369 -999 -999 -999 -999 -999
2008-10-22 07:39 51°16.461 2°45.098 -999 -999 -999 -999 -999
2008-10-22 07:40 51°16.57 2°44.834 -999 -999 -999 -999 -999
2008-10-22 07:41 51°16.679 2°44.569 -999 -999 -999 -999 -999
2008-10-22 07:42 51°16.784 2°44.301 -999 -999 -999 -999 -999
2008-10-22 07:43 51°16.9 2°44.042 -999 -999 -999 -999 -999
2008-10-22 07:44 51°17.01 2°43.791 11.5 319 11.7 102000 62
2008-10-22 07:45 51°17.117 2°43.531 12 319 11.7 101990 64
2008-10-22 07:46 51°17.225 2°43.274 14.9 316 11.7 102000 64
2008-10-22 07:47 51°17.341 2°43.015 13.5 22 11.8 101990 63
2008-10-22 07:48 51°17.456 2°42.767 13.3 315 11.8 102000 64
2008-10-22 07:49 51°17.575 2°42.512 12.8 316 11.8 101990 63
2008-10-22 07:50 51°17.696 2°42.259 14 317 11.8 101990 63
2008-10-22 07:51 51°17.808 2°41.999 13.3 21 11.8 101980 64
2008-10-22 07:52 51°17.92 2°41.738 12.8 321 11.8 101980 65
2008-10-22 07:53 51°18.027 2°41.475 13.3 320 11.8 101980 64
2008-10-22 07:54 51°18.135 2°41.211 15 319 11.8 101990 64
2008-10-22 07:55 51°18.243 2°40.951 14.3 317 11.8 102000 65
2008-10-22 07:56 51°18.351 2°40.691 14.4 319 11.8 102000 65
2008-10-22 07:57 51°18.459 2°40.434 11 319 11.8 102000 66
2008-10-22 07:58 51°18.57 2°40.178 12.9 319 11.7 102000 65
2008-10-22 07:59 51°18.682 2°39.913 13.6 319 11.8 101990 67
2008-10-22 08:00 51°18.792 2°39.658 12.1 319 11.8 101990 67
2008-10-22 08:01 51°18.903 2°39.389 11.3 324 11.7 102000 68
2008-10-22 08:02 51°19.011 2°39.129 12.8 320 11.7 102000 67
2008-10-22 08:03 51°19.126 2°38.862 11.8 321 11.7 102010 68
2008-10-22 08:04 51°19.235 2°38.602 13.4 322 11.7 101990 67
2008-10-22 08:05 51°19.345 2°38.333 11.9 320 11.7 101990 67
2008-10-22 08:06 51°19.453 2°38.075 11.6 316 11.7 102000 65
2008-10-22 08:07 51°19.567 2°37.815 10.3 317 11.7 102010 66
2008-10-22 08:08 51°19.684 2°37.554 14.8 317 11.8 102000 67
2008-10-22 08:09 51°19.8 2°37.309 14.2 317 11.7 102010 67
2008-10-22 08:10 51°19.914 2°37.095 13.1 317 11.8 102010 65
2008-10-22 08:11 51°20.025 2°36.902 12.1 317 11.8 102010 67
2008-10-22 08:12 51°20.068 2°36.858 8.6 250 11.8 102030 66
2008-10-22 08:13 51°20.08 2°36.881 9.4 257 11.7 102050 66
2008-10-22 08:14 51°20.095 2°36.906 9.3 259 11.8 102050 69
2008-10-22 08:15 51°20.109 2°36.932 6.4 260 11.8 102050 68
2008-10-22 08:16 51°20.122 2°36.96 4.5 265 11.9 102050 71
2008-10-22 08:17 51°20.134 2°36.99 6.5 263 11.8 102060 68
2008-10-22 08:18 51°20.145 2°37.022 5.7 263 11.8 102060 67
2008-10-22 08:19 51°20.155 2°37.052 7.8 261 11.8 102060 68
2008-10-22 08:20 51°20.164 2°37.084 5 263 11.8 102070 70
2008-10-22 08:21 51°20.174 2°37.114 5.5 265 11.8 102070 68
2008-10-22 08:22 51°20.183 2°37.145 5 266 11.7 102080 67
2008-10-22 08:23 51°20.192 2°37.175 7.7 268 11.7 102080 67
2008-10-22 08:24 51°20.202 2°37.204 5.5 263 11.8 102090 69
2008-10-22 08:25 51°20.211 2°37.232 5.7 263 11.8 102080 69
2008-10-22 08:26 51°20.224 2°37.261 9.3 256 11.8 102080 70
2008-10-22 08:27 51°20.261 2°37.264 9.5 25 11.8 102070 70
2008-10-22 08:28 51°20.283 2°37.218 7.8 344 11.8 102070 70
2008-10-22 08:29 51°20.253 2°37.194 7.5 11 11.8 102060 70
2008-10-22 08:30 51°20.208 2°37.177 8.9 348 11.7 102070 69
2008-10-22 08:31 51°20.174 2°37.104 9.4 346 11.7 102060 68
2008-10-22 08:32 51°20.151 2°37.039 8.7 341 11.7 102060 68
2008-10-22 08:33 51°20.141 2°37.004 9.2 339 11.7 102070 68
2008-10-22 08:34 51°20.137 2°36.992 7.4 342 11.7 102060 68
2008-10-22 08:35 51°20.137 2°36.992 8.4 345 11.7 102060 67
2008-10-22 08:36 51°20.139 2°37.001 7.9 344 11.7 102070 67
2008-10-22 08:37 51°20.141 2°37.014 8.4 338 11.7 102070 68
2008-10-22 08:38 51°20.139 2°37.013 8.3 334 11.8 102070 70
2008-10-22 08:39 51°20.136 2°36.998 7.7 340 11.8 102070 69
2008-10-22 08:40 51°20.128 2°36.981 9.3 345 11.8 102070 67
2008-10-22 08:41 51°20.125 2°36.981 7.7 346 11.9 102070 71
2008-10-22 08:42 51°20.127 2°36.991 8.2 334 11.9 102070 68
2008-10-22 08:43 51°20.134 2°37.011 6.4 347 11.9 102070 68
2008-10-22 08:44 51°20.142 2°37.041 7.2 355 11.9 102070 70
2008-10-22 08:45 51°20.154 2°37.071 9.2 10 11.9 102060 69
2008-10-22 08:46 51°20.165 2°37.099 7.5 26 11.9 102070 68
2008-10-22 08:47 51°20.175 2°37.125 7.6 31 11.8 102070 67
2008-10-22 08:48 51°20.185 2°37.151 7.8 28 11.7 102070 67
2008-10-22 08:49 51°20.193 2°37.177 7.5 25 11.7 102070 68
2008-10-22 08:50 51°20.201 2°37.204 8 21 11.8 102080 68
2008-10-22 08:51 51°20.209 2°37.231 8.4 25 11.7 102080 68
2008-10-22 08:52 51°20.217 2°37.257 7.9 20 11.8 102080 68
2008-10-22 08:53 51°20.203 2°37.278 8.3 2 11.8 102080 67
2008-10-22 08:54 51°20.177 2°37.232 9.5 332 11.8 102080 67
2008-10-22 08:55 51°20.165 2°37.124 9.5 324 11.8 102080 66
2008-10-22 08:56 51°20.174 2°36.993 12.2 324 11.8 102080 67
2008-10-22 08:57 51°20.19 2°36.898 11.1 318 11.9 102080 68
2008-10-22 08:58 51°20.214 2°36.851 7.5 26 11.9 102090 67
2008-10-22 08:59 51°20.238 2°36.834 10.9 27 12 102080 67
2008-10-22 09:00 51°20.257 2°36.839 8.4 24 12.1 102080 67
2008-10-22 09:01 51°20.274 2°36.852 8.7 26 12.2 102080 69
2008-10-22 09:02 51°20.289 2°36.873 9.3 244 12.3 102080 69
2008-10-22 09:03 51°20.315 2°36.864 9.6 315 12.3 102090 69
2008-10-22 09:04 51°20.308 2°36.801 9.5 355 12.2 102090 67
2008-10-22 09:05 51°20.26 2°36.836 7.8 26 12.2 102090 69
2008-10-22 09:06 51°20.226 2°36.907 7.6 23 12 102090 67
2008-10-22 09:07 51°20.193 2°36.951 7 13 12 102090 67
2008-10-22 09:08 51°20.167 2°36.974 8 15 11.9 102090 67
2008-10-22 09:09 51°20.152 2°36.991 8.5 12 11.9 102090 68
2008-10-22 09:10 51°20.145 2°37.01 8.4 8 12 102090 69
2008-10-22 09:11 51°20.142 2°37.029 8.6 9 11.9 102100 68
2008-10-22 09:12 51°20.142 2°37.049 6.5 9 11.9 102100 66
2008-10-22 09:13 51°20.144 2°37.071 7.5 8 11.8 102100 67
2008-10-22 09:14 51°20.149 2°37.095 8.4 15 11.8 102100 66
2008-10-22 09:15 51°20.156 2°37.12 7.5 20 11.8 102110 66
2008-10-22 09:16 51°20.163 2°37.144 8.4 20 11.9 102110 66
2008-10-22 09:17 51°20.169 2°37.166 7.9 20 11.9 102120 69
2008-10-22 09:18 51°20.176 2°37.19 7.5 19 11.9 102110 67
2008-10-22 09:19 51°20.182 2°37.213 6.4 25 11.9 102110 65
2008-10-22 09:20 51°20.189 2°37.236 7.2 25 11.9 102110 69
2008-10-22 09:21 51°20.196 2°37.257 7.1 20 12 102110 70
2008-10-22 09:22 51°20.203 2°37.278 6.9 25 12 102110 67
2008-10-22 09:23 51°20.21 2°37.299 6.9 26 12 102110 68
2008-10-22 09:24 51°20.216 2°37.32 6.8 19 12 102110 69
2008-10-22 09:25 51°20.198 2°37.332 9.8 359 12 102110 68
2008-10-22 09:26 51°20.177 2°37.298 10.4 327 12 102120 69
2008-10-22 09:27 51°20.181 2°37.232 8.4 322 12 102110 67
2008-10-22 09:28 51°20.187 2°37.186 10 323 12 102110 67
2008-10-22 09:29 51°20.193 2°37.157 8 333 12.1 102120 68
2008-10-22 09:30 51°20.195 2°37.139 7.9 333 12.1 102120 68
2008-10-22 09:31 51°20.195 2°37.127 8.6 332 12 102130 67
2008-10-22 09:32 51°20.195 2°37.119 8.5 330 12 102120 66
2008-10-22 09:33 51°20.199 2°37.114 7.9 324 12.1 102140 68
2008-10-22 09:34 51°20.205 2°37.112 7.4 321 12.1 102130 69
2008-10-22 09:35 51°20.216 2°37.11 7.2 21 12.1 102120 66
2008-10-22 09:36 51°20.22 2°37.074 9.2 335 12.1 102130 66
2008-10-22 09:37 51°20.212 2°37.061 8.3 347 12.1 102140 67
2008-10-22 09:38 51°20.208 2°37.069 7.3 353 12 102130 67
2008-10-22 09:39 51°20.208 2°37.085 6.4 7 12 102120 70
2008-10-22 09:40 51°20.211 2°37.104 8.8 13 12 102130 69
2008-10-22 09:41 51°20.216 2°37.124 6.4 18 12 102140 66
2008-10-22 09:42 51°20.222 2°37.142 5.9 24 12.1 102140 69
2008-10-22 09:43 51°20.229 2°37.161 7.7 25 12.2 102140 69
2008-10-22 09:44 51°20.236 2°37.18 7.3 27 12.2 102140 69
2008-10-22 09:45 51°20.243 2°37.2 6.2 22 12.2 102150 70
2008-10-22 09:46 51°20.248 2°37.217 6.5 21 12.2 102150 70
2008-10-22 09:47 51°20.253 2°37.233 6.4 23 12.1 102150 69
2008-10-22 09:48 51°20.258 2°37.25 6.5 15 12.1 102140 68
2008-10-22 09:49 51°20.244 2°37.261 6.3 -999 12.1 102140 71
2008-10-22 09:50 51°20.223 2°37.244 9.1 339 12.1 102140 69
2008-10-22 09:51 51°20.208 2°37.2 7.7 334 12.1 102140 67
2008-10-22 09:52 51°20.197 2°37.135 10.5 330 12.1 102150 67
2008-10-22 09:53 51°20.188 2°37.083 8.5 329 12.1 102140 67
2008-10-22 09:54 51°20.184 2°37.058 7.4 338 12.1 102150 68
2008-10-22 09:55 51°20.184 2°37.049 7.4 332 12.2 102150 68
2008-10-22 09:56 51°20.185 2°37.053 7 335 12.2 102150 67
2008-10-22 09:57 51°20.188 2°37.066 6.4 345 12.2 102160 69
2008-10-22 09:58 51°20.192 2°37.085 7.5 353 12.1 102150 68
2008-10-22 09:59 51°20.199 2°37.106 6.9 7 12.1 102150 67
2008-10-22 10:00 51°20.205 2°37.123 7.2 16 12.1 102150 68
2008-10-22 10:01 51°20.211 2°37.139 8.3 16 12.1 102150 70
2008-10-22 10:02 51°20.217 2°37.157 8.3 27 12.1 102160 70
2008-10-22 10:03 51°20.223 2°37.175 8.3 28 12.1 102160 69
2008-10-22 10:04 51°20.227 2°37.194 8.3 34 12.2 102150 71
2008-10-22 10:05 51°20.229 2°37.211 6.5 29 12.2 102160 68
2008-10-22 10:06 51°20.23 2°37.226 5.6 20 12.2 102160 70
2008-10-22 10:07 51°20.22 2°37.239 7.3 9 12.3 102160 71
2008-10-22 10:08 51°20.196 2°37.233 9.8 345 12.2 102160 68
2008-10-22 10:09 51°20.177 2°37.203 10.3 332 12.1 102160 68
2008-10-22 10:10 51°20.17 2°37.15 8.5 332 12.1 102160 66
2008-10-22 10:11 51°20.161 2°37.086 7.4 323 12.1 102170 67
2008-10-22 10:12 51°20.159 2°37.048 6.9 320 12.2 102150 68
2008-10-22 10:13 51°20.164 2°37.03 8.3 316 12.2 102170 69
2008-10-22 10:14 51°20.172 2°37.027 8.2 24 12.2 102170 69
2008-10-22 10:15 51°20.182 2°37.036 9.8 26 12.3 102180 69
2008-10-22 10:16 51°20.189 2°37.049 8.7 255 12.3 102180 68
2008-10-22 10:17 51°20.195 2°37.063 8.7 260 12.3 102180 68
2008-10-22 10:18 51°20.2 2°37.078 6.7 263 12.4 102180 68
2008-10-22 10:19 51°20.204 2°37.093 7.4 265 12.4 102180 67
2008-10-22 10:20 51°20.208 2°37.108 5.6 265 12.3 102170 65
2008-10-22 10:21 51°20.212 2°37.122 7.1 263 12.4 102160 68
2008-10-22 10:22 51°20.214 2°37.138 7.5 267 12.4 102170 68
2008-10-22 10:23 51°20.218 2°37.152 5.9 263 12.4 102170 67
2008-10-22 10:24 51°20.222 2°37.166 6.1 267 12.4 102170 67
2008-10-22 10:25 51°20.226 2°37.181 7.5 266 12.4 102170 69
2008-10-22 10:26 51°20.23 2°37.196 6.8 268 12.3 102170 68
2008-10-22 10:27 51°20.235 2°37.209 8 260 12.5 102170 72
2008-10-22 10:28 51°20.256 2°37.217 7.1 255 12.4 102170 69
2008-10-22 10:29 51°20.312 2°37.2 10.5 20 12.5 102160 70
2008-10-22 10:30 51°20.367 2°37.173 9.7 248 12.6 102150 69
2008-10-22 10:31 51°20.4 2°37.158 8.8 248 12.5 102170 69
2008-10-22 10:32 51°20.424 2°37.15 8.8 251 12.6 102160 70
2008-10-22 10:33 51°20.442 2°37.148 9.8 253 12.6 102150 69
2008-10-22 10:34 51°20.455 2°37.151 10.2 256 12.6 102160 69
2008-10-22 10:35 51°20.469 2°37.156 10.1 257 12.7 102160 70
2008-10-22 10:36 51°20.514 2°37.179 7 22 12.6 102160 69
2008-10-22 10:37 51°20.519 2°37.276 5.6 32 12.5 102180 68
2008-10-22 10:38 51°20.471 2°37.385 6 29 12.4 102180 70
2008-10-22 10:39 51°20.412 2°37.523 6.4 21 12.4 102180 69
2008-10-22 10:40 51°20.331 2°37.698 6.1 17 12.4 102180 69
2008-10-22 10:41 51°20.237 2°37.876 6 17 12.4 102180 68
2008-10-22 10:42 51°20.143 2°38.054 8.1 16 12.4 102190 69
2008-10-22 10:43 51°20.047 2°38.236 7.3 21 12.4 102170 70
2008-10-22 10:44 51°19.953 2°38.41 7 23 12.4 102190 69
2008-10-22 10:45 51°19.856 2°38.587 7.4 21 12.4 102190 69
2008-10-22 10:46 51°19.761 2°38.766 7.6 18 12.5 102190 71
2008-10-22 10:47 51°19.667 2°38.943 6.4 21 12.4 102190 70
2008-10-22 10:48 51°19.573 2°39.124 6.2 19 12.4 102190 69
2008-10-22 10:49 51°19.479 2°39.307 7 18 12.4 102190 68
2008-10-22 10:50 51°19.385 2°39.493 7.4 23 12.4 102190 67
2008-10-22 10:51 51°19.292 2°39.672 6.7 11 12.4 102190 69
2008-10-22 10:52 51°19.199 2°39.853 6.9 14 12.4 102190 68
2008-10-22 10:53 51°19.104 2°40.032 7.7 15 12.4 102190 70
2008-10-22 10:54 51°19.008 2°40.21 6.6 24 12.4 102190 69
2008-10-22 10:55 51°18.911 2°40.386 8.1 22 12.5 102190 69
2008-10-22 10:56 51°18.813 2°40.56 8.4 18 12.4 102190 67
2008-10-22 10:57 51°18.721 2°40.743 7.8 18 12.4 102200 70
2008-10-22 10:58 51°18.634 2°40.925 6.8 23 12.3 102200 68
2008-10-22 10:59 51°18.545 2°41.11 6.7 23 12.4 102210 69
2008-10-22 11:00 51°18.457 2°41.29 6.8 25 12.4 102200 70
2008-10-22 11:01 51°18.366 2°41.48 7.9 15 12.3 102200 69
2008-10-22 11:02 51°18.276 2°41.661 7.4 21 12.4 102200 69
2008-10-22 11:03 51°18.177 2°41.84 8 20 12.3 102210 69
2008-10-22 11:04 51°18.081 2°42.014 7.8 21 12.3 102210 69
2008-10-22 11:05 51°17.982 2°42.195 6.7 21 12.3 102210 68
2008-10-22 11:06 51°17.886 2°42.372 8.4 18 12.3 102210 68
2008-10-22 11:07 51°17.789 2°42.545 6.9 17 12.3 102200 68
2008-10-22 11:08 51°17.69 2°42.723 9.2 24 12.3 102210 70
2008-10-22 11:09 51°17.593 2°42.894 6.3 16 12.3 102210 69
2008-10-22 11:10 51°17.494 2°43.075 9 23 12.3 102210 69
2008-10-22 11:11 51°17.385 2°43.271 8.4 21 12.4 102220 69
2008-10-22 11:12 51°17.264 2°43.482 7.5 13 12.3 102210 69
2008-10-22 11:13 51°17.145 2°43.709 6.2 13 12.3 102210 68
2008-10-22 11:14 51°17.027 2°43.946 6.8 20 12.3 102220 69
2008-10-22 11:15 51°16.907 2°44.179 8.1 16 12.3 102210 70
2008-10-22 11:16 51°16.789 2°44.414 6.8 10 12.3 102220 68
2008-10-22 11:17 51°16.673 2°44.649 7.7 12 12.4 102220 70
2008-10-22 11:18 51°16.574 2°44.893 6 25 12.3 102210 68
2008-10-22 11:19 51°16.471 2°45.148 5.9 20 12.3 102220 69
2008-10-22 11:20 51°16.38 2°45.405 5.2 18 12.3 102210 69
2008-10-22 11:21 51°16.293 2°45.658 5.8 17 12.4 102220 70
2008-10-22 11:22 51°16.197 2°45.917 6.5 18 12.4 102220 70
2008-10-22 11:23 51°16.114 2°46.177 4.7 25 12.4 102220 68
2008-10-22 11:24 51°16.038 2°46.462 6.1 24 12.4 102220 69
2008-10-22 11:25 51°15.962 2°46.744 6.2 25 12.4 102230 70
2008-10-22 11:26 51°15.885 2°47.024 6.1 27 12.4 102220 69
2008-10-22 11:27 51°15.808 2°47.299 6.3 27 12.4 102230 68
2008-10-22 11:28 51°15.738 2°47.588 5.1 23 12.4 102230 69
2008-10-22 11:29 51°15.67 2°47.873 4.2 19 12.4 102230 68
2008-10-22 11:30 51°15.605 2°48.156 6.4 29 12.5 102220 69
2008-10-22 11:31 51°15.538 2°48.445 4.9 28 12.5 102230 68
2008-10-22 11:32 51°15.47 2°48.729 4.5 30 12.5 102220 70
2008-10-22 11:33 51°15.402 2°49.014 4.8 22 12.5 102220 69
2008-10-22 11:34 51°15.333 2°49.299 5.7 25 12.5 102230 68
2008-10-22 11:35 51°15.265 2°49.582 4.5 29 12.5 102230 69
2008-10-22 11:36 51°15.211 2°49.872 3.3 27 12.5 102230 70
2008-10-22 11:37 51°15.165 2°50.173 4.2 29 12.6 102230 70
2008-10-22 11:38 51°15.119 2°50.468 4.9 31 12.6 102220 71
2008-10-22 11:39 51°15.069 2°50.755 5.4 28 12.6 102230 70
2008-10-22 11:40 51°15.017 2°51.054 5.8 28 12.6 102230 70
2008-10-22 11:41 51°14.971 2°51.347 4.9 35 12.5 102230 69
2008-10-22 11:42 51°14.931 2°51.636 5.1 30 12.5 102230 71
2008-10-22 11:43 51°14.897 2°51.928 5.7 31 12.4 102230 69
2008-10-22 11:44 51°14.857 2°52.218 5.5 29 12.4 102230 68
2008-10-22 11:45 51°14.818 2°52.504 4.4 29 12.5 102230 69
2008-10-22 11:46 51°14.775 2°52.803 4.6 29 12.5 102240 69
2008-10-22 11:47 51°14.735 2°53.1 3.6 29 12.5 102230 69
2008-10-22 11:48 51°14.701 2°53.398 4.9 35 12.5 102240 68
2008-10-22 11:49 51°14.662 2°53.692 5.4 36 12.5 102240 68
2008-10-22 11:50 51°14.615 2°53.992 5.1 36 12.5 102240 68
2008-10-22 11:51 51°14.564 2°54.288 4.4 33 12.5 102240 69
2008-10-22 11:52 51°14.504 2°54.579 4.8 33 12.5 102240 68
2008-10-22 11:53 51°14.429 2°54.859 4.6 20 12.6 102240 70
2008-10-22 11:54 51°14.332 2°55.124 8.5 9 12.6 102240 70
2008-10-22 11:55 51°14.208 2°55.327 6.2 5 12.5 102230 69
2008-10-22 11:56 51°14.092 2°55.428 5.1 10 12.5 102250 67